Insider trading report: Insider Sale on November 5, 2019, Part 3

This page lists insider stock sales reported to U.S. Securities and Exchange Commission (SEC) on November 5, 2019. To query the history of insider trading activities (stock purchases, sales, and option exercises) for a particular company, use the Issuer column. For insider stock purchases reported on this day see insider trading report: insider purchases reported on November 5, 2019.


 1   2   3 

Insider stock sales reported on November 5, 2019, Part 3
Symbol Issuer   Shares     Price     Value($)  
RMNI Rimini Street, Inc. 1st time Maddock Kevin (SVP, Global Sales - Recurring) 5,500 4.00 22,000 2019-11-05
RNR Renaissancere Holdings Ltd 1st time Paradine Jonathan (SVP, CUO - Singapore) 10,000 187.00 1,870,000 2019-11-04
ROKU Roku, Inc 1st time Wood Anthony J. (CEO and Chairman BOD) 35,000 146.20 5,116,895 2019-11-01
RST Rosetta Stone Inc 1st time Hulett Mathew N (Co-President) 1,101 20.00 22,020 2019-11-04
   Gaehde Nicholas C (Co-President) 2,500 20.00 50,000 2019-11-04
SAIL Sailpoint Technologies Holdings, Inc. 1st time Mcclain Mark D. (CEO and President) 2,369 20.00 47,380 2019-11-01
   Mcclain Mark D. (CEO and President) 12,631 20.00 252,620 2019-11-04
   Pflaging James Michael (Director) 1,895 20.00 37,900 2019-11-04
   Pflaging James Michael (Director) 3,105 20.00 62,100 2019-11-01
SBBX Sb One Bancorp 1st time Lista George (CEO SB One Insurance) 2,000 22.27 44,540 2019-11-04
SBUX Starbucks Corp 1st time Ullman Myron E Iii (Director) 9,973 84.79 845,610 2019-11-01
SCHN Schnitzer Steel Industries, Inc. 1st time Peach Richard (SVP, CFO) 24,090 21.86 526,607 2019-11-05
   Saba Peter B (SVP, GC, & Corp. Secretary) 9,333 22.14 206,632 2019-11-04
   Henderson Michael R (SVP & Co-Pres. of AMR & CSS) 4,432 22.22 98,479 2019-11-05
   Henderson Michael R (SVP & Co-Pres. of AMR & CSS) 10,799 22.18 239,521 2019-11-04
   Gaggini Stefano R. (VP, Deputy CFO & CAO) 4,806 22.25 106,933 2019-11-04
   Heiskell Steven (SVP & Co-President, AMR) 14,379 22.13 318,207 2019-11-04
SHAK Shake Shack Inc. 1st time Garutti Maria L 30,000 82.75 2,482,530 2019-11-01
SHOO Steven Madden, Ltd. 1st time Dharia Arvind (Chief Financial Officer) 15,000 41.19 617,850 2019-11-01
   Sinha Awadhesh K (Chief Operating Officer) 14,943 41.13 614,605 2019-11-01
   Varela Amelia (President) 80,000 41.46 3,316,800 2019-11-01
   Frieders Karla (Chief Merchandising Officer) 12,500 41.57 519,625 2019-11-04
SIBN Si-bone, Inc. 1st time Recupero Anthony J (Chief Commercial Officer) 1,000 16.51 16,510 2019-11-01
   Recupero Anthony J (Chief Commercial Officer) 400 18.00 7,200 2019-11-04
SIVB Svb Financial Group 1st time China John (President of SVB Capital) 1,000 227.63 227,633 2019-11-01
SMAR Smartsheet Inc 1st time Farrell Eugene (Chief Product Officer) 200 40.51 8,101 2019-11-01
   Farrell Eugene (Chief Product Officer) 100 40.41 4,040 2019-11-04
SNDR Schneider National, Inc. 1st time Schilling Amy G (Vice President and Controller) 8,000 24.00 192,008 2019-11-04
SNX Synnex Corp 1st time Wurster Thomas S. (Director) 2,000 119.57 239,138 2019-11-04
   Witt Marshall (Chief Financial Officer) 285 118.70 33,829 2019-11-01
SO Southern Co 1st time Kuczynski Stephen E (Pres. & CEO, Southern Nuclear) 2,000 62.22 124,440 2019-11-04
SP Sp Plus Corp 1st time Baumann G Marc (President & CEO) 3,800 46.63 177,182 2019-11-05
SRDX Surmodics Inc 1st time Maharaj Gary R (President & CEO) 5,000 40.90 204,510 2019-11-01
ST Sensata Technologies Holding Plc 1st time Peffer Charles 14,800 51.10 756,280 2019-11-01
STRT Strattec Security Corp 1st time Guillot Rolando (Senior VP - Operations) 6,000 23.42 140,520 2019-11-04
SUM Summit Materials, Inc. 1st time Murphy John Raymond (Director) 7,809 22.94 179,138 2019-11-01
   Benedict Anne Lee (See Remarks) 42,904 23.71 1,017,253 2019-11-01
   Evans Mikel Shane (See Remarks) 344,231 23.34 8,033,663 2019-11-01
SWCH Switch, Inc. 1st time Thomas Thomas A 30,000 14.76 442,830 2019-11-01
SYY Sysco Corp 1st time Bene Thomas (President and CEO) 39,384 80.00 3,150,720 2019-11-01
   Bertrand Greg D (EVP) 25,000 81.06 2,026,500 2019-11-01
TCDA Tricida, Inc. 1st time Veitinger Klaus R Dr 5,250 38.88 204,104 2019-11-01
   Lockey Claire (Chief Dev. Officer and Sr. VP) 10,548 37.90 399,800 2019-11-01
   Klaerner Gerrit (President and CEO) 49,000 38.42 1,882,530 2019-11-01
   Coufal Sandra I 2,338 38.80 90,726 2019-11-01
TDOC Teladoc Health, Inc. 1st time Levy Lewis (Chief Medical Officer) 2,025 77.37 156,674 2019-11-01
TENB Tenable Holdings, Inc. 1st time Huffard John C Jr (Director) 24,500 25.07 614,215 2019-11-01
   Huffard John C Jr (Director) 12,134 25.35 307,596 2019-11-04
TMK Globe Life Inc. 1st time Matson Kenneth J (Other) 17,000 97.55 1,658,350 2019-11-04
TNC Tennant Co 1st time Killingstad Chris (President and CEO) 12,843 76.98 988,615 2019-11-01
TNET Trinet Group, Inc. 1st time Babinec Martin 23,500 52.97 1,244,724 2019-11-01
TPX Tempur Sealy International, Inc. 1st time H Partners Management, Llc (10% Owner) 100,000 89.47 8,947,200 2019-11-01
   H Partners Management, Llc (10% Owner) 2,200,000 85.50 188,100,000 2019-11-04
   Ruchim Arik W (Director) 2,200,000 85.50 188,100,000 2019-11-04
   Ruchim Arik W (Director) 100,000 89.47 8,947,200 2019-11-01
TREE Lendingtree, Inc. 1st time Ozonian Steven 975 362.88 353,811 2019-11-01
TRMB Trimble Inc. 1st time Matthews Darryl R (SVP & Sector Head) 10,000 .00 0 2019-11-01
   Sankpal Sachin (SVP & Sector Head) 16,100 .00 0 2019-11-01
   Buick Rosalind D. (Sr. Vice President) 12,605 .00 0 2019-11-01
TSLA Tesla, Inc. 1st time Guillen Jerome M (President, Automotive) 2,000 316.32 632,640 2019-11-01
TTD Trade Desk, Inc. 1st time Vobejda Susan (Chief Marketing Officer) 1,754 203.59 357,096 2019-11-05
TWTR Twitter, Inc. 1st time Kaiden Robert (Chief Accounting Officer) 9,685 29.72 287,847 2019-11-01
UCTT Ultra Clean Holdings, Inc. 1st time Mezhvinsky Leonid 22,500 22.09 497,137 2019-11-04
USQIX Usq Core Real Estate Fund 1st time Filabi Azish (Director) 99 25.72 2,546 2019-11-01
UTX United Technologies Corp /de/ 1st time Dumais Michael R (EVP, Operations & Strategy) 6,554 145.90 956,254 2019-11-01
VAC Marriott Vacations Worldwide Corp 1st time Cunningham R. Lee (Exec VP & COO) 3,259 112.64 367,093 2019-11-04
VBTX Veritex Holdings, Inc. 1st time Holland C Malcolm Iii (Chairman, CEO, President) 300 25.00 7,500 2019-11-01
   Holland C Malcolm Iii (Chairman, CEO, President) 1,900 25.10 47,693 2019-11-04
   Holland C Malcolm Iii (Chairman, CEO, President) 300 25.01 7,503 2019-10-31
VIAV Viavi Solutions Inc. 1st time Maletira Amar (CFO) 20,000 15.83 316,680 2019-11-05
   Maletira Amar (CFO) 37,700 16.10 607,007 2019-11-04
VMW Vmware, Inc. 1st time Ramaswami Rajiv (COO, Products & Cloud Services) 14,862 163.98 2,437,070 2019-11-04
   Raghuram Rangarajan (raghu) (COO, Products & Cloud Services) 24,712 163.84 4,048,888 2019-11-04
VREX Varex Imaging Corp 1st time Jonaitis Mark S. (SVP and GM, X-Ray Sources) 13,530 31.02 419,700 2019-11-01
W Wayfair Inc. 1st time Miller James R. (Interim CTO) 1,687 81.99 138,317 2019-11-01
   Netzer Thomas (Chief Operating Officer) 4,955 73.94 366,372 2019-11-01
WAL Western Alliance Bancorporation 1st time Marshall Todd 10,000 52.00 520,000 2019-11-05
   Marshall Todd 20,000 50.18 1,003,600 2019-11-01
WBS Webster Financial Corp 1st time Crawford John Joseph 2,000 45.34 90,672 2019-11-01
   Pettie Mark 2,000 45.00 90,000 2019-11-01
   Pettie Mark 4,000 46.32 185,280 2019-11-04
WING Wingstop Inc. 1st time Skipworth Michael (See Remarks) 2,000 82.42 164,830 2019-11-01
WORK Slack Technologies, Inc. 1st time Schellhase David (General Counsel and Secretary) 3,139 21.75 68,273 2019-11-01
   Butterfield Stewart (Chief Executive Officer) 2,500 21.76 54,400 2019-11-01
   Frati Robert (Sr VP Sales, Customer Success) 33,080 21.75 719,490 2019-11-01
   Shim Allen (Chief Financial Officer) 28,321 21.75 615,981 2019-11-01
   Henderson Cal (Chief Technology Officer) 14,809 21.75 322,021 2019-11-01
   Zell Brandon (Chief Accounting Officer) 3,766 21.75 81,910 2019-11-01
XLNX Xilinx Inc 1st time Patterson John Michael 1,000 96.36 96,359 2019-11-04
   Gillai Saar 3,400 96.65 328,616 2019-11-04
YEXT Yext, Inc. 1st time Steele Jim (President & CRO) 5,000 16.42 82,080 2019-11-01
   Dixon Tom Christopher (Chief Technology Officer) 5,000 16.41 82,065 2019-11-01
YMAB Y-mabs Therapeutics, Inc. 1st time Gad Thomas (President and Chairman) 4,000 30.11 120,420 2019-11-04
ZBRA Zebra Technologies Corp 1st time Kogl Cristen L (SVP, General Counsel & Secty) 975 242.97 236,895 2019-11-04

 1   2   3 




Real-time Insider Trading

Insider Officer Cluster Trading

Top Officer Buys of the Week

Top Officer Buys of the Month